Time;durP1;ratioP1;P1;durP2;ratioP2;P2;SDS_P1;SDS_P2;PMS_P1;PMS_P2;Temp;Humidity;BMP_temperature;BMP_pressure;BME280_temperature;BME280_humidity;BME280_pressure;Samples;Min_cycle;Max_cycle;Signal;HPM_P1;HPM_P2
2021/07/23 00:00:00;;;;;;;;;;;512.90;2380.80;;;;;;5092988;28;19904;-82
2021/07/23 00:02:25;;;;;;;;;;;512.90;2380.80;;;;;;5092864;28;19946;-81
2021/07/23 00:04:51;;;;;;;;;;;512.90;2380.80;;;;;;5074949;28;19911;-81
2021/07/23 00:07:17;;;;;;;;;;;512.80;2380.80;;;;;;5092829;28;20350;-82
2021/07/23 00:09:43;;;;;;;;;;;512.80;2380.80;;;;;;5092893;28;20380;-82
2021/07/23 00:12:08;;;;;;;;;;;512.80;2380.80;;;;;;5093115;28;20304;-81
2021/07/23 00:14:34;;;;;;;;;;;512.70;2380.80;;;;;;5092814;28;19915;-83
2021/07/23 00:17:00;;;;;;;;;;;512.70;2380.80;;;;;;5092932;28;19919;-79
2021/07/23 00:19:25;;;;;;;;;;;512.60;2380.80;;;;;;5092846;28;19904;-80
2021/07/23 00:21:51;;;;;;;;;;;512.60;2380.80;;;;;;5092712;28;19911;-79
2021/07/23 00:24:16;;;;;;;;;;;512.60;2380.80;;;;;;5092967;28;19987;-83
2021/07/23 00:26:42;;;;;;;;;;;512.50;2380.80;;;;;;5096576;28;20270;-84
2021/07/23 00:29:07;;;;;;;;;;;512.60;2380.80;;;;;;5097037;28;19963;-75
2021/07/23 00:31:33;;;;;;;;;;;512.60;2380.80;;;;;;5096749;28;19908;-79
2021/07/23 00:33:58;;;;;;;;;;;512.70;2380.80;;;;;;5096643;28;19904;-82
2021/07/23 00:36:24;;;;;;;;;;;512.70;2380.80;;;;;;5098381;28;20274;-82
2021/07/23 00:38:49;;;;;;;;;;;512.70;2380.80;;;;;;5098143;28;19915;-81
2021/07/23 00:41:15;;;;;;;;;;;512.70;2380.80;;;;;;5097038;28;19904;-82
2021/07/23 00:43:40;;;;;;;;;;;512.70;2380.80;;;;;;5078408;28;19904;-82
2021/07/23 00:46:06;;;;;;;;;;;512.60;2380.80;;;;;;5096517;28;19996;-81
2021/07/23 00:48:32;;;;;;;;;;;512.60;2380.80;;;;;;5096305;28;19926;-81
2021/07/23 00:50:58;;;;;;;;;;;512.60;2380.80;;;;;;5096474;28;19911;-81
2021/07/23 00:53:24;;;;;;;;;;;512.50;2380.80;;;;;;5096479;28;19908;-83
2021/07/23 00:55:56;;;;;;;;;;;512.40;2380.80;;;;;;5096277;28;19940;-83
2021/07/23 00:58:23;;;;;;;;;;;512.40;2380.80;;;;;;5096424;28;20004;-83
2021/07/23 01:00:49;;;;;;;;;;;512.30;2380.80;;;;;;5096241;28;20332;-74
2021/07/23 01:03:15;;;;;;;;;;;512.20;2380.80;;;;;;5096181;28;19908;-79
2021/07/23 01:05:41;;;;;;;;;;;512.10;2380.80;;;;;;5095926;28;19919;-83
2021/07/23 01:08:06;;;;;;;;;;;512.10;2380.80;;;;;;5096194;28;19973;-82
2021/07/23 01:10:36;;;;;;;;;;;512.10;2380.80;;;;;;5096137;28;20357;-74
2021/07/23 01:13:01;;;;;;;;;;;512.00;2380.80;;;;;;5095832;28;19908;-74
2021/07/23 01:15:27;;;;;;;;;;;512.00;2380.80;;;;;;5095887;28;19911;-74
2021/07/23 01:17:52;;;;;;;;;;;512.00;2380.80;;;;;;5095694;28;19954;-74
2021/07/23 01:20:25;;;;;;;;;;;512.00;2380.80;;;;;;5095634;28;19998;-78
2021/07/23 01:22:54;;;;;;;;;;;512.00;2380.80;;;;;;5096088;28;19991;-82
2021/07/23 01:25:21;;;;;;;;;;;487.30;2380.80;;;;;;5095626;28;19908;-82
2021/07/23 01:27:50;;;;;;;;;;;512.00;2380.80;;;;;;5095867;28;19908;-83
2021/07/23 01:30:16;;;;;;;;;;;512.00;2380.80;;;;;;5095554;28;19973;-84
2021/07/23 01:32:42;;;;;;;;;;;512.00;2380.80;;;;;;5095600;28;20369;-78
2021/07/23 01:35:08;;;;;;;;;;;512.00;2380.80;;;;;;5095359;28;19908;-79
2021/07/23 01:37:34;;;;;;;;;;;487.30;2380.80;;;;;;5094634;28;19948;-82
2021/07/23 01:40:00;;;;;;;;;;;487.30;2380.80;;;;;;5095586;28;20381;-81
2021/07/23 01:42:29;;;;;;;;;;;487.30;2380.80;;;;;;5095293;28;19904;-84
2021/07/23 01:44:54;;;;;;;;;;;487.20;2380.80;;;;;;5095513;28;19932;-84
2021/07/23 01:47:20;;;;;;;;;;;487.20;2380.80;;;;;;5077185;28;19959;-84
2021/07/23 01:49:45;;;;;;;;;;;487.20;2380.80;;;;;;5095451;28;19910;-82
2021/07/23 01:52:11;;;;;;;;;;;487.10;2380.80;;;;;;5095212;28;19904;-84
2021/07/23 01:54:36;;;;;;;;;;;487.10;2380.80;;;;;;5095491;28;19904;-84
2021/07/23 01:57:03;;;;;;;;;;;487.10;2380.80;;;;;;5095022;28;19904;-84
2021/07/23 01:59:29;;;;;;;;;;;487.10;2380.80;;;;;;5095220;28;19904;-85
2021/07/23 02:01:56;;;;;;;;;;;487.10;2380.80;;;;;;5095212;28;19904;-83
2021/07/23 02:04:22;;;;;;;;;;;487.10;2380.80;;;;;;5094883;28;19908;-82
2021/07/23 02:06:47;;;;;;;;;;;487.20;2380.80;;;;;;5095003;28;20002;-84
2021/07/23 02:09:13;;;;;;;;;;;487.00;2380.80;;;;;;5094842;28;20347;-84
2021/07/23 02:11:39;;;;;;;;;;;487.10;2380.80;;;;;;5076947;28;19986;-84
2021/07/23 02:14:07;;;;;;;;;;;487.00;2380.80;;;;;;5094934;28;20430;-82
2021/07/23 02:16:32;;;;;;;;;;;487.00;2380.80;;;;;;5094981;28;19911;-84
2021/07/23 02:18:58;;;;;;;;;;;487.00;2380.80;;;;;;5094644;28;19904;-82
2021/07/23 02:21:24;;;;;;;;;;;486.90;2380.80;;;;;;5094891;28;19915;-84
2021/07/23 02:23:49;;;;;;;;;;;486.90;2380.80;;;;;;5094685;28;19994;-84
2021/07/23 02:26:18;;;;;;;;;;;486.80;2380.80;;;;;;5094704;28;20282;-84
2021/07/23 02:28:44;;;;;;;;;;;486.80;2380.80;;;;;;5091521;28;19908;-83
2021/07/23 02:31:10;;;;;;;;;;;486.90;2380.80;;;;;;5076469;28;20121;-83
2021/07/23 02:33:35;;;;;;;;;;;486.90;2380.80;;;;;;5090794;28;19999;-81
2021/07/23 02:36:01;;;;;;;;;;;486.90;2380.80;;;;;;5077235;28;20271;-78
2021/07/23 02:38:27;;;;;;;;;;;486.80;2380.80;;;;;;5088112;28;19935;-73
2021/07/23 02:40:54;;;;;;;;;;;486.80;2380.80;;;;;;5074009;28;19954;-77
2021/07/23 02:43:20;;;;;;;;;;;486.80;2380.80;;;;;;5073947;28;19991;-77
2021/07/23 02:45:46;;;;;;;;;;;486.80;2380.80;;;;;;5079250;28;20015;-78
2021/07/23 02:48:11;;;;;;;;;;;486.80;2380.80;;;;;;5082610;28;20263;-79
2021/07/23 02:50:37;;;;;;;;;;;486.80;2380.80;;;;;;5073562;28;19905;-75
2021/07/23 02:53:03;;;;;;;;;;;486.70;2380.80;;;;;;5073814;28;20429;-74
2021/07/23 02:55:28;;;;;;;;;;;486.70;2380.80;;;;;;5073487;28;19927;-74
2021/07/23 02:57:54;;;;;;;;;;;486.70;2380.80;;;;;;5073680;28;19965;-78
2021/07/23 03:00:20;;;;;;;;;;;486.70;2380.80;;;;;;5073918;28;19915;-82
2021/07/23 03:02:45;;;;;;;;;;;486.70;2380.80;;;;;;5078397;28;19910;-83
2021/07/23 03:05:11;;;;;;;;;;;486.70;2380.80;;;;;;5083018;28;19904;-83
2021/07/23 03:07:36;;;;;;;;;;;486.70;2380.80;;;;;;5073212;28;19955;-74
2021/07/23 03:10:02;;;;;;;;;;;486.70;2380.80;;;;;;5073456;28;19911;-74
2021/07/23 03:12:28;;;;;;;;;;;486.70;2380.80;;;;;;5073368;28;20358;-83
2021/07/23 03:14:53;;;;;;;;;;;486.70;2380.80;;;;;;5073400;28;19911;-82
2021/07/23 03:17:19;;;;;;;;;;;486.70;2380.80;;;;;;5073345;28;19970;-74
2021/07/23 03:19:44;;;;;;;;;;;486.70;2380.80;;;;;;5073177;28;19911;-75
2021/07/23 03:22:10;;;;;;;;;;;486.70;2380.80;;;;;;5073213;28;19912;-74
2021/07/23 03:24:35;;;;;;;;;;;486.60;2380.80;;;;;;5073174;28;19962;-83
2021/07/23 03:27:01;;;;;;;;;;;486.60;2380.80;;;;;;5073283;28;19912;-82
2021/07/23 03:29:26;;;;;;;;;;;486.50;2380.80;;;;;;5073035;28;19916;-74
2021/07/23 03:31:52;;;;;;;;;;;486.50;2380.80;;;;;;5072956;28;19904;-75
2021/07/23 03:34:18;;;;;;;;;;;486.50;2380.80;;;;;;5073149;28;20325;-81
2021/07/23 03:36:43;;;;;;;;;;;486.40;2380.80;;;;;;5076400;28;19964;-81
2021/07/23 03:39:09;;;;;;;;;;;486.40;2380.80;;;;;;5075072;28;19911;-74
2021/07/23 03:41:34;;;;;;;;;;;486.40;2380.80;;;;;;5077750;28;19908;-79
2021/07/23 03:44:00;;;;;;;;;;;486.40;2380.80;;;;;;5073055;28;19909;-78
2021/07/23 03:46:25;;;;;;;;;;;461.70;2380.80;;;;;;5072893;28;19908;-82
2021/07/23 03:48:53;;;;;;;;;;;461.60;2380.80;;;;;;5074307;28;19904;-74
2021/07/23 03:51:19;;;;;;;;;;;461.70;2380.80;;;;;;5081388;28;19989;-79
2021/07/23 03:53:44;;;;;;;;;;;486.40;2380.80;;;;;;5072668;28;19904;-78
2021/07/23 03:56:10;;;;;;;;;;;486.40;2380.80;;;;;;5072919;28;19920;-74
2021/07/23 03:58:39;;;;;;;;;;;486.40;2380.80;;;;;;5072648;28;19904;-82
2021/07/23 04:01:05;;;;;;;;;;;486.40;2380.80;;;;;;5072406;28;19997;-84
2021/07/23 04:03:31;;;;;;;;;;;461.70;2380.80;;;;;;5072699;28;19915;-75
2021/07/23 04:05:57;;;;;;;;;;;486.40;2380.80;;;;;;5073703;28;19908;-77
2021/07/23 04:08:22;;;;;;;;;;;486.40;2380.80;;;;;;5074186;28;19905;-77
2021/07/23 04:10:48;;;;;;;;;;;486.40;2380.80;;;;;;5072671;28;19904;-78
2021/07/23 04:13:13;;;;;;;;;;;486.40;2380.80;;;;;;5072835;28;19908;-82
2021/07/23 04:15:39;;;;;;;;;;;486.40;2380.80;;;;;;5072690;28;19994;-78
2021/07/23 04:18:04;;;;;;;;;;;486.40;2380.80;;;;;;5072628;28;19911;-83
2021/07/23 04:20:30;;;;;;;;;;;486.50;2380.80;;;;;;5072660;28;20332;-78
2021/07/23 04:22:56;;;;;;;;;;;486.50;2380.80;;;;;;5072843;28;19916;-78
2021/07/23 04:25:21;;;;;;;;;;;486.50;2380.80;;;;;;5072878;28;20010;-82
2021/07/23 04:27:47;;;;;;;;;;;486.60;2380.80;;;;;;5072461;28;19943;-82
2021/07/23 04:30:13;;;;;;;;;;;486.70;2380.80;;;;;;5072444;28;19916;-74
2021/07/23 04:32:39;;;;;;;;;;;486.80;2380.80;;;;;;5072634;28;19980;-77
2021/07/23 04:35:05;;;;;;;;;;;486.70;2380.80;;;;;;5072457;28;19916;-79
2021/07/23 04:37:30;;;;;;;;;;;486.80;2380.80;;;;;;5082503;28;19915;-81
2021/07/23 04:39:56;;;;;;;;;;;486.80;2380.80;;;;;;5058328;28;20381;-82
2021/07/23 04:42:21;;;;;;;;;;;486.90;2380.80;;;;;;5072509;28;19905;-84
2021/07/23 04:44:47;;;;;;;;;;;486.90;2380.80;;;;;;5072519;28;19904;-84
2021/07/23 04:47:13;;;;;;;;;;;487.00;2380.80;;;;;;5072254;28;19908;-84
2021/07/23 04:49:38;;;;;;;;;;;487.00;2380.80;;;;;;5072287;28;20359;-84
2021/07/23 04:52:04;;;;;;;;;;;487.10;2380.80;;;;;;5072189;28;19936;-82
2021/07/23 04:54:29;;;;;;;;;;;487.10;2380.80;;;;;;5072266;28;19908;-82
2021/07/23 04:56:55;;;;;;;;;;;487.10;2380.80;;;;;;5072336;28;19927;-78
2021/07/23 04:59:21;;;;;;;;;;;487.10;2380.80;;;;;;5072516;28;19905;-82
2021/07/23 05:01:46;;;;;;;;;;;487.10;2380.80;;;;;;5072184;28;20375;-82
2021/07/23 05:04:12;;;;;;;;;;;487.20;2380.80;;;;;;5072087;28;19991;-74
2021/07/23 05:06:38;;;;;;;;;;;487.20;2380.80;;;;;;5072059;28;19908;-74
2021/07/23 05:09:04;;;;;;;;;;;487.30;2380.80;;;;;;5072033;28;20329;-76
2021/07/23 05:11:30;;;;;;;;;;;487.30;2380.80;;;;;;5072620;28;20007;-81
2021/07/23 05:13:55;;;;;;;;;;;487.30;2380.80;;;;;;5075497;28;20006;-79
2021/07/23 05:16:21;;;;;;;;;;;512.00;2380.80;;;;;;5075607;28;19904;-82
2021/07/23 05:18:47;;;;;;;;;;;512.10;2380.80;;;;;;5075697;28;19904;-81
2021/07/23 05:21:12;;;;;;;;;;;512.10;2380.80;;;;;;5075605;28;19937;-82
2021/07/23 05:23:39;;;;;;;;;;;512.20;2380.80;;;;;;5075444;28;19911;-81
2021/07/23 05:26:05;;;;;;;;;;;512.10;2380.80;;;;;;5075222;28;19908;-83
2021/07/23 05:28:32;;;;;;;;;;;512.00;2380.80;;;;;;5075447;28;19905;-75
2021/07/23 05:30:58;;;;;;;;;;;512.00;2380.80;;;;;;5075209;28;19956;-74
2021/07/23 05:33:23;;;;;;;;;;;512.00;2380.80;;;;;;5075617;28;19908;-82
2021/07/23 05:35:49;;;;;;;;;;;487.30;2380.80;;;;;;5075210;28;19904;-83
2021/07/23 05:38:15;;;;;;;;;;;512.10;2380.80;;;;;;5089180;28;19915;-83
2021/07/23 05:40:41;;;;;;;;;;;512.20;2380.80;;;;;;5075090;28;19915;-74
2021/07/23 05:43:07;;;;;;;;;;;512.30;2380.80;;;;;;5074993;28;19976;-83
2021/07/23 05:45:33;;;;;;;;;;;512.40;2380.80;;;;;;5074956;28;20383;-82
2021/07/23 05:47:58;;;;;;;;;;;512.50;2380.80;;;;;;5075081;28;19951;-74
2021/07/23 05:50:24;;;;;;;;;;;512.40;2380.80;;;;;;5074911;28;19904;-78
2021/07/23 05:52:49;;;;;;;;;;;512.50;2380.80;;;;;;5074996;28;19999;-77
2021/07/23 05:55:15;;;;;;;;;;;512.40;2380.80;;;;;;5074820;28;19904;-74
2021/07/23 05:57:40;;;;;;;;;;;512.50;2380.80;;;;;;5074764;28;19908;-74
2021/07/23 06:00:06;;;;;;;;;;;512.60;2380.80;;;;;;5074808;28;19904;-78
2021/07/23 06:02:32;;;;;;;;;;;512.80;2380.80;;;;;;5074771;28;19904;-77
2021/07/23 06:04:58;;;;;;;;;;;512.80;2380.80;;;;;;5074859;28;19942;-79
2021/07/23 06:07:23;;;;;;;;;;;512.80;2380.80;;;;;;5074614;28;19909;-78
2021/07/23 06:09:49;;;;;;;;;;;512.70;2380.80;;;;;;5074831;28;19908;-82
2021/07/23 06:12:14;;;;;;;;;;;512.80;2380.80;;;;;;5074418;28;19904;-77
2021/07/23 06:14:40;;;;;;;;;;;512.80;2380.80;;;;;;5074475;28;20350;-77
2021/07/23 06:17:05;;;;;;;;;;;512.90;2380.80;;;;;;5074446;28;19904;-77
2021/07/23 06:19:31;;;;;;;;;;;537.70;2406.40;;;;;;5074307;28;19905;-81
2021/07/23 06:21:57;;;;;;;;;;;537.70;2406.40;;;;;;5074364;28;19912;-74
2021/07/23 06:24:22;;;;;;;;;;;537.80;2406.40;;;;;;5073868;28;19908;-79
2021/07/23 06:26:48;;;;;;;;;;;537.90;2406.40;;;;;;5074141;28;19997;-77
2021/07/23 06:29:13;;;;;;;;;;;537.90;2406.40;;;;;;5073809;28;20400;-81
2021/07/23 06:31:39;;;;;;;;;;;538.00;2406.40;;;;;;5056315;28;20342;-82
2021/07/23 06:34:04;;;;;;;;;;;538.00;2406.40;;;;;;5074214;28;19905;-83
2021/07/23 06:36:33;;;;;;;;;;;538.00;2406.40;;;;;;5057571;28;20045;-83
2021/07/23 06:38:59;;;;;;;;;;;538.20;2406.40;;;;;;5086134;28;19904;-83
2021/07/23 06:41:24;;;;;;;;;;;538.40;2406.40;;;;;;5073816;28;19908;-75
2021/07/23 06:43:50;;;;;;;;;;;538.50;2406.40;;;;;;5073962;28;19916;-79
2021/07/23 06:46:16;;;;;;;;;;;563.20;2432.00;;;;;;5073834;28;19912;-83
2021/07/23 06:48:42;;;;;;;;;;;563.30;2432.00;;;;;;5073635;28;20010;-83
2021/07/23 06:51:08;;;;;;;;;;;563.40;2432.00;;;;;;5073826;28;19911;-84
2021/07/23 06:53:33;;;;;;;;;;;563.50;2432.00;;;;;;5073605;28;19947;-84
2021/07/23 06:55:59;;;;;;;;;;;563.60;2432.00;;;;;;5073614;28;19950;-84
2021/07/23 06:58:24;;;;;;;;;;;563.80;2432.00;;;;;;5073558;28;19967;-85
2021/07/23 07:00:50;;;;;;;;;;;563.90;2432.00;;;;;;5061742;28;19915;-84
2021/07/23 07:03:16;;;;;;;;;;;564.10;2432.00;;;;;;5081796;28;20004;-84
2021/07/23 07:05:41;;;;;;;;;;;588.80;2432.00;;;;;;5073301;28;19908;-85
2021/07/23 07:08:07;;;;;;;;;;;589.10;2432.00;;;;;;5065314;28;19904;-85
2021/07/23 07:10:32;;;;;;;;;;;589.30;2432.00;;;;;;5077400;28;20402;-86
2021/07/23 07:12:58;;;;;;;;;;;589.60;2432.00;;;;;;5073518;28;19909;-85
2021/07/23 07:15:24;;;;;;;;;;;589.70;2432.00;;;;;;5055480;28;19904;-83
2021/07/23 07:17:59;;;;;;;;;;;589.70;2432.00;;;;;;5073212;28;19951;-82
2021/07/23 07:20:25;;;;;;;;;;;614.50;2432.00;;;;;;5073393;28;20003;-82
2021/07/23 07:22:51;;;;;;;;;;;614.70;2432.00;;;;;;5073240;28;19936;-78
2021/07/23 07:25:17;;;;;;;;;;;614.80;2432.00;;;;;;5073194;28;20270;-77
2021/07/23 07:27:42;;;;;;;;;;;615.00;2432.00;;;;;;5072965;28;19957;-78
2021/07/23 07:30:08;;;;;;;;;;;615.20;2432.00;;;;;;5073131;28;19916;-78
2021/07/23 07:32:34;;;;;;;;;;;640.10;2432.00;;;;;;5073022;28;20003;-79
2021/07/23 07:34:59;;;;;;;;;;;640.40;2432.00;;;;;;5073004;28;19908;-79
2021/07/23 07:37:25;;;;;;;;;;;640.60;2432.00;;;;;;5083539;28;19953;-80
2021/07/23 07:39:50;;;;;;;;;;;640.90;2432.00;;;;;;5078317;28;19974;-85
2021/07/23 07:42:16;;;;;;;;;;;665.90;2432.00;;;;;;5062385;28;19943;-86
2021/07/23 07:44:42;;;;;;;;;;;666.00;2432.00;;;;;;5079976;28;20386;-85
2021/07/23 07:47:08;;;;;;;;;;;666.20;2432.00;;;;;;5072755;28;20389;-85
2021/07/23 07:49:33;;;;;;;;;;;666.40;2432.00;;;;;;5072914;28;19908;-85
2021/07/23 07:51:59;;;;;;;;;;;691.20;2432.00;;;;;;5072819;28;19995;-76
2021/07/23 07:54:24;;;;;;;;;;;691.50;2432.00;;;;;;5073294;28;19908;-83
2021/07/23 07:56:51;;;;;;;;;;;691.60;2432.00;;;;;;5095958;28;19908;-74
2021/07/23 07:59:16;;;;;;;;;;;691.80;2432.00;;;;;;5075801;28;19915;-83
2021/07/23 08:01:42;;;;;;;;;;;716.80;2432.00;;;;;;5077694;28;20282;-84
2021/07/23 08:04:08;;;;;;;;;;;716.90;2432.00;;;;;;5076295;28;19911;-75
2021/07/23 08:06:36;;;;;;;;;;;717.00;2432.00;;;;;;5075545;28;20297;-83
2021/07/23 08:09:13;;;;;;;;;;;717.20;2432.00;;;;;;5078086;28;19910;-84
2021/07/23 08:11:38;;;;;;;;;;;717.40;2432.00;;;;;;5075435;28;19911;-78
2021/07/23 08:14:05;;;;;;;;;;;717.50;2432.00;;;;;;5078282;28;19904;-82
2021/07/23 08:16:30;;;;;;;;;;;717.70;2432.00;;;;;;5075492;28;20298;-77
2021/07/23 08:18:56;;;;;;;;;;;742.50;2432.00;;;;;;5054381;28;19911;-78
2021/07/23 08:21:22;;;;;;;;;;;742.60;2432.00;;;;;;5075582;28;19909;-84
2021/07/23 08:23:47;;;;;;;;;;;742.80;2432.00;;;;;;5066156;28;20297;-76
2021/07/23 08:26:13;;;;;;;;;;;742.80;2432.00;;;;;;5076077;28;20289;-83
2021/07/23 08:28:38;;;;;;;;;;;742.80;2406.40;;;;;;5075132;28;19915;-84
2021/07/23 08:31:04;;;;;;;;;;;743.00;2380.80;;;;;;5060035;28;19919;-74
2021/07/23 08:33:30;;;;;;;;;;;743.20;2355.20;;;;;;5075314;28;19908;-75
2021/07/23 08:35:55;;;;;;;;;;;768.20;2304.00;;;;;;5077735;28;19911;-79
2021/07/23 08:38:21;;;;;;;;;;;768.90;2252.80;;;;;;5086521;28;19911;-79
2021/07/23 08:40:47;;;;;;;;;;;794.20;2176.00;;;;;;5072785;28;19940;-84
2021/07/23 08:43:12;;;;;;;;;;;819.20;2124.80;;;;;;5083085;28;19903;-83
2021/07/23 08:45:38;;;;;;;;;;;819.30;2073.60;;;;;;5072868;28;19990;-83
2021/07/23 08:48:04;;;;;;;;;;;794.40;2073.60;;;;;;5076178;28;19911;-87
2021/07/23 08:50:30;;;;;;;;;;;794.10;2099.20;;;;;;5076087;28;20519;-86
2021/07/23 08:52:55;;;;;;;;;;;793.70;2124.80;;;;;;5076511;28;19912;-86
2021/07/23 08:55:22;;;;;;;;;;;793.60;2124.80;;;;;;5075985;28;20267;-85
2021/07/23 08:57:48;;;;;;;;;;;768.80;2099.20;;;;;;5080770;28;19994;-76
2021/07/23 09:00:15;;;;;;;;;;;768.70;2099.20;;;;;;5106544;28;20330;-84
2021/07/23 09:02:52;;;;;;;;;;;768.50;2099.20;;;;;;5093459;28;19915;-79
2021/07/23 09:05:18;;;;;;;;;;;768.30;2099.20;;;;;;5085707;28;19927;-84
2021/07/23 09:07:44;;;;;;;;;;;768.20;2124.80;;;;;;5080539;28;19965;-84
2021/07/23 09:10:09;;;;;;;;;;;768.00;2124.80;;;;;;5084066;28;19912;-86
2021/07/23 09:12:54;;;;;;;;;;;743.30;2124.80;;;;;;5081618;28;20098;-87
2021/07/23 09:15:38;;;;;;;;;;;743.10;2150.40;;;;;;5084499;28;19908;-85
2021/07/23 09:18:05;;;;;;;;;;;742.90;2176.00;;;;;;5080314;28;19912;-86
2021/07/23 09:20:31;;;;;;;;;;;742.60;2176.00;;;;;;5085196;28;19904;-84
2021/07/23 09:23:01;;;;;;;;;;;742.50;2201.60;;;;;;5080587;28;19938;-83
2021/07/23 09:25:37;;;;;;;;;;;742.40;2227.20;;;;;;5083439;28;19947;-85
2021/07/23 09:28:19;;;;;;;;;;;717.70;2201.60;;;;;;5080241;28;19908;-75
2021/07/23 09:30:44;;;;;;;;;;;717.70;2201.60;;;;;;5084610;28;19916;-84
2021/07/23 09:33:10;;;;;;;;;;;717.50;2201.60;;;;;;5080150;28;19962;-84
2021/07/23 09:35:36;;;;;;;;;;;717.50;2201.60;;;;;;5083311;28;19939;-83
2021/07/23 09:38:02;;;;;;;;;;;717.40;2227.20;;;;;;5076851;28;20282;-83
2021/07/23 09:40:41;;;;;;;;;;;717.40;2227.20;;;;;;5075426;28;19995;-82
2021/07/23 09:43:07;;;;;;;;;;;717.30;2227.20;;;;;;5071435;28;19904;-75
2021/07/23 09:45:32;;;;;;;;;;;717.10;2252.80;;;;;;5075730;28;19908;-75
2021/07/23 09:48:11;;;;;;;;;;;717.10;2252.80;;;;;;5075075;28;19912;-75
2021/07/23 09:50:45;;;;;;;;;;;717.10;2252.80;;;;;;5075130;28;19966;-83
2021/07/23 09:53:12;;;;;;;;;;;717.00;2252.80;;;;;;5075116;28;19911;-75
2021/07/23 09:55:39;;;;;;;;;;;716.90;2252.80;;;;;;5075197;28;20269;-84
2021/07/23 09:58:06;;;;;;;;;;;716.90;2252.80;;;;;;5074230;28;19954;-78
2021/07/23 10:00:41;;;;;;;;;;;716.90;2252.80;;;;;;5074992;28;19912;-83
2021/07/23 10:03:11;;;;;;;;;;;716.90;2278.40;;;;;;5074923;28;19910;-85
2021/07/23 10:05:38;;;;;;;;;;;717.10;2278.40;;;;;;5074865;28;19908;-84
2021/07/23 10:08:06;;;;;;;;;;;717.10;2252.80;;;;;;5074880;28;20420;-84
2021/07/23 10:10:32;;;;;;;;;;;717.00;2252.80;;;;;;5074756;28;19908;-84
2021/07/23 10:12:58;;;;;;;;;;;716.80;2278.40;;;;;;5074813;28;20316;-81
2021/07/23 10:15:24;;;;;;;;;;;716.80;2278.40;;;;;;5074753;28;19939;-84
2021/07/23 10:17:50;;;;;;;;;;;716.80;2278.40;;;;;;5088638;28;20001;-75
2021/07/23 10:20:19;;;;;;;;;;;716.90;2278.40;;;;;;5074660;28;19908;-76
2021/07/23 10:22:48;;;;;;;;;;;716.90;2278.40;;;;;;5074290;28;20381;-79
2021/07/23 10:25:14;;;;;;;;;;;716.90;2278.40;;;;;;5074321;28;19908;-85
2021/07/23 10:27:40;;;;;;;;;;;716.90;2278.40;;;;;;5074192;28;19916;-85
2021/07/23 10:30:26;;;;;;;;;;;716.80;2278.40;;;;;;5074335;28;20405;-80
2021/07/23 10:32:51;;;;;;;;;;;692.10;2252.80;;;;;;5073980;28;19904;-79
2021/07/23 10:35:17;;;;;;;;;;;692.10;2252.80;;;;;;5074159;28;20286;-75
2021/07/23 10:37:42;;;;;;;;;;;692.10;2278.40;;;;;;5085971;28;19959;-78
2021/07/23 10:40:08;;;;;;;;;;;692.10;2252.80;;;;;;5076209;28;19905;-79
2021/07/23 10:42:40;;;;;;;;;;;692.10;2252.80;;;;;;5073964;28;19912;-82
2021/07/23 10:45:06;;;;;;;;;;;692.10;2252.80;;;;;;5074181;28;20084;-83
2021/07/23 10:47:36;;;;;;;;;;;692.10;2252.80;;;;;;5056121;28;20024;-84
2021/07/23 10:50:02;;;;;;;;;;;692.10;2252.80;;;;;;5073927;28;19905;-85
2021/07/23 10:52:28;;;;;;;;;;;692.10;2227.20;;;;;;5074025;28;20389;-84
2021/07/23 10:55:09;;;;;;;;;;;716.80;2278.40;;;;;;5074234;28;19905;-83
2021/07/23 10:57:35;;;;;;;;;;;692.10;2278.40;;;;;;5073936;28;19991;-82
2021/07/23 11:00:00;;;;;;;;;;;692.10;2278.40;;;;;;5073797;28;20042;-86
2021/07/23 11:02:29;;;;;;;;;;;692.10;2252.80;;;;;;5073584;28;19908;-84
2021/07/23 11:05:03;;;;;;;;;;;692.10;2227.20;;;;;;5075531;28;19911;-84
2021/07/23 11:07:29;;;;;;;;;;;692.00;2278.40;;;;;;5076138;28;19912;-84
2021/07/23 11:09:55;;;;;;;;;;;692.00;2252.80;;;;;;5073524;28;19950;-85
2021/07/23 11:12:20;;;;;;;;;;;691.90;2252.80;;;;;;5073470;28;19916;-84
2021/07/23 11:14:57;;;;;;;;;;;691.90;2252.80;;;;;;5073470;28;19944;-85
2021/07/23 11:17:23;;;;;;;;;;;692.10;2227.20;;;;;;5073531;28;20282;-85
2021/07/23 11:19:51;;;;;;;;;;;691.90;2252.80;;;;;;5073571;28;19905;-85
2021/07/23 11:22:21;;;;;;;;;;;691.90;2227.20;;;;;;5073292;28;19904;-84
2021/07/23 11:24:47;;;;;;;;;;;692.00;2227.20;;;;;;5073694;28;19966;-84
2021/07/23 11:27:22;;;;;;;;;;;692.00;2227.20;;;;;;5073380;28;19908;-80
2021/07/23 11:29:47;;;;;;;;;;;692.00;2227.20;;;;;;5073341;28;20398;-81
2021/07/23 11:32:14;;;;;;;;;;;691.90;2252.80;;;;;;5073262;28;19997;-84
2021/07/23 11:34:44;;;;;;;;;;;691.90;2252.80;;;;;;5073167;28;20050;-85
2021/07/23 11:37:16;;;;;;;;;;;691.80;2252.80;;;;;;5080272;28;20339;-85
2021/07/23 11:39:55;;;;;;;;;;;691.90;2201.60;;;;;;5079183;28;20392;-85
2021/07/23 11:42:21;;;;;;;;;;;691.90;2227.20;;;;;;5073206;28;20290;-85
2021/07/23 11:44:59;;;;;;;;;;;692.00;2227.20;;;;;;5073173;28;19904;-80
2021/07/23 11:47:32;;;;;;;;;;;692.10;2201.60;;;;;;5073167;28;19908;-79
2021/07/23 11:49:59;;;;;;;;;;;716.80;2227.20;;;;;;5072770;28;19904;-75
2021/07/23 11:52:24;;;;;;;;;;;716.80;2201.60;;;;;;5073303;28;20270;-84
2021/07/23 11:54:57;;;;;;;;;;;716.90;2176.00;;;;;;5073180;28;19908;-85
2021/07/23 11:57:23;;;;;;;;;;;716.90;2201.60;;;;;;5054808;28;19952;-85
2021/07/23 11:59:49;;;;;;;;;;;716.90;2150.40;;;;;;5072975;28;19904;-85
2021/07/23 12:02:14;;;;;;;;;;;716.90;2201.60;;;;;;5072713;28;19904;-85
2021/07/23 12:04:43;;;;;;;;;;;716.80;2201.60;;;;;;5072724;28;19915;-85
2021/07/23 12:07:09;;;;;;;;;;;716.90;2201.60;;;;;;5054745;28;20343;-85
2021/07/23 12:09:35;;;;;;;;;;;716.90;2176.00;;;;;;5072818;28;19951;-85
2021/07/23 12:12:01;;;;;;;;;;;716.90;2201.60;;;;;;5072833;28;19908;-85
2021/07/23 12:14:26;;;;;;;;;;;716.90;2176.00;;;;;;5072816;28;19912;-79
2021/07/23 12:16:52;;;;;;;;;;;717.00;2124.80;;;;;;5072906;28;19904;-79
2021/07/23 12:19:18;;;;;;;;;;;716.90;2176.00;;;;;;5072689;28;19908;-78
2021/07/23 12:21:44;;;;;;;;;;;716.80;2176.00;;;;;;5075259;28;19905;-84
2021/07/23 12:24:11;;;;;;;;;;;716.80;2150.40;;;;;;5072827;28;19904;-77
2021/07/23 12:26:40;;;;;;;;;;;716.80;2176.00;;;;;;5076705;28;20383;-80
2021/07/23 12:29:10;;;;;;;;;;;716.80;2176.00;;;;;;5076650;28;19912;-84
2021/07/23 12:31:37;;;;;;;;;;;716.80;2176.00;;;;;;5076708;28;19908;-84
2021/07/23 12:34:09;;;;;;;;;;;716.80;2150.40;;;;;;5076740;28;20330;-84
2021/07/23 12:36:41;;;;;;;;;;;716.80;2150.40;;;;;;5078938;28;20282;-84
2021/07/23 12:39:07;;;;;;;;;;;716.80;2150.40;;;;;;5087537;28;20275;-84
2021/07/23 12:41:33;;;;;;;;;;;692.10;2099.20;;;;;;5076410;28;19904;-83
2021/07/23 12:44:02;;;;;;;;;;;692.10;2124.80;;;;;;5076570;28;19912;-85
2021/07/23 12:46:28;;;;;;;;;;;692.10;2048.00;;;;;;5076132;28;19908;-85
2021/07/23 12:48:54;;;;;;;;;;;716.90;2048.00;;;;;;5058199;28;19912;-76
2021/07/23 12:51:24;;;;;;;;;;;716.90;2124.80;;;;;;5076613;28;19904;-84
2021/07/23 12:53:58;;;;;;;;;;;716.80;2124.80;;;;;;5076041;28;20468;-75
2021/07/23 12:56:30;;;;;;;;;;;692.10;2099.20;;;;;;5076115;28;19978;-75
2021/07/23 12:58:56;;;;;;;;;;;692.10;2099.20;;;;;;5075682;28;20375;-83
2021/07/23 13:01:22;;;;;;;;;;;692.10;2099.20;;;;;;5076100;28;19904;-83
2021/07/23 13:03:47;;;;;;;;;;;716.80;2124.80;;;;;;5075921;28;19995;-85
2021/07/23 13:06:16;;;;;;;;;;;692.10;2099.20;;;;;;5058223;28;19995;-85
2021/07/23 13:08:42;;;;;;;;;;;716.80;2099.20;;;;;;5076093;28;19912;-84
2021/07/23 13:11:09;;;;;;;;;;;692.10;2099.20;;;;;;5075919;28;20290;-84
2021/07/23 13:13:36;;;;;;;;;;;692.10;2073.60;;;;;;5057919;28;19909;-85
2021/07/23 13:16:03;;;;;;;;;;;716.80;2099.20;;;;;;5075858;28;19915;-84
2021/07/23 13:18:28;;;;;;;;;;;716.80;2099.20;;;;;;5075850;28;19954;-83
2021/07/23 13:20:54;;;;;;;;;;;716.80;2073.60;;;;;;5075475;28;19908;-84
2021/07/23 13:23:20;;;;;;;;;;;716.80;2099.20;;;;;;5075737;28;19963;-82
2021/07/23 13:25:45;;;;;;;;;;;716.80;2099.20;;;;;;5075348;28;19983;-82
2021/07/23 13:28:11;;;;;;;;;;;716.80;2073.60;;;;;;5075623;28;20385;-82
2021/07/23 13:30:36;;;;;;;;;;;716.80;2073.60;;;;;;5075317;28;19920;-82
2021/07/23 13:33:02;;;;;;;;;;;692.10;2022.40;;;;;;5074247;28;19904;-79
2021/07/23 13:35:28;;;;;;;;;;;692.10;2048.00;;;;;;5075404;28;19915;-83
2021/07/23 13:37:54;;;;;;;;;;;692.00;2073.60;;;;;;5074446;28;20281;-82